CYQY

Sydney / J.A. Douglas McCurdy Airport

Sydney, Nova Scotia, Canada
METAR CYQY 160700Z 26006KT 15SM OVC030 M02/M06 A3032 RMK SC8 SLP271
Observed Flight Rules
Nov-16 @ 07:00 UTC (40 minutes ago) Marginal Visual Flight Rules
Wind Visibility Clouds
260° at 6 knots 15 miles
  • Overcast at 3,000' AGL
Temperatures Readings
Current -2°C / 28°F
Dewpoint -6°C / 21°F
Humidity 74%
Altimeter 30.32" Hg
Pressure 1027.1 hPa
Elevation 62
METAR CYQY 160700Z 26006KT 15SM OVC030 M02/M06 A3032 RMK SC8 SLP271
Observed Flight Rules
Nov-16 @ 07:00 UTC
(40 minutes ago)
MVFR
Wind Visibility
260° at 6 knots 15 miles
Clouds
  • Overcast at 3,000' AGL
Temperature Dewpoint
-2°C / 28°F -6°C / 21°F
Humidity Altimeter Pressure
74% 30.32" Hg 1027.1 hPa